Time;durP1;ratioP1;P1;durP2;ratioP2;P2;SDS_P1;SDS_P2;PMS_P1;PMS_P2;Temp;Humidity;BMP_temperature;BMP_pressure;BME280_temperature;BME280_humidity;BME280_pressure;Samples;Min_cycle;Max_cycle;Signal;HPM_P1;HPM_P2
2021/12/05 00:17:34;;;;;;;13.27;2.13;;;13.00;99.90;;;;;;5056673;28;20465;-73
2021/12/05 00:22:23;;;;;;;15.07;2.30;;;12.90;99.90;;;;;;5093930;28;20020;-74
2021/12/05 00:24:53;;;;;;;10.38;2.50;;;13.00;99.90;;;;;;5094273;28;20444;-76
2021/12/05 00:27:25;;;;;;;16.73;2.53;;;12.90;99.90;;;;;;5094208;28;20071;-75
2021/12/05 00:32:36;;;;;;;9.85;1.60;;;12.90;99.90;;;;;;5094325;28;20032;-75
2021/12/05 00:35:36;;;;;;;10.05;2.28;;;13.00;99.90;;;;;;5093952;28;20035;-75
2021/12/05 00:43:42;;;;;;;12.40;2.42;;;13.00;99.90;;;;;;5093685;28;20089;-75
2021/12/05 00:52:04;;;;;;;15.45;2.80;;;13.00;99.90;;;;;;5092568;28;20377;-77
2021/12/05 00:57:21;;;;;;;10.98;2.55;;;13.00;99.90;;;;;;5093752;28;20031;-75
2021/12/05 01:00:01;;;;;;;12.35;2.95;;;13.00;99.90;;;;;;5093510;28;20028;-75
2021/12/05 01:15:57;;;;;;;16.20;2.30;;;13.00;99.90;;;;;;5093808;28;20031;-76
2021/12/05 01:18:24;;;;;;;16.08;2.50;;;13.00;99.90;;;;;;5092160;28;20149;-75
2021/12/05 01:20:56;;;;;;;10.65;2.05;;;13.00;99.90;;;;;;5091035;28;20047;-75
2021/12/05 01:23:53;;;;;;;15.20;2.58;;;13.00;99.90;;;;;;5093906;28;20119;-75
2021/12/05 01:31:35;;;;;;;12.13;2.05;;;13.20;99.90;;;;;;5093077;28;20501;-77
2021/12/05 01:36:56;;;;;;;10.25;2.15;;;13.20;99.90;;;;;;5092934;28;20048;-75
2021/12/05 01:39:48;;;;;;;22.40;3.00;;;13.20;99.90;;;;;;5093019;28;20020;-75
2021/12/05 01:43:04;;;;;;;11.95;2.85;;;13.30;99.90;;;;;;5091526;28;20032;-77
2021/12/05 01:51:16;;;;;;;16.35;2.80;;;13.40;99.90;;;;;;5093196;28;20089;-75
2021/12/05 02:08:00;;;;;;;14.10;1.95;;;13.10;99.90;;;;;;5030382;28;20084;-75
2021/12/05 02:30:06;;;;;;;11.60;2.10;;;13.00;99.90;;;;;;5050593;28;20087;-77
2021/12/05 02:38:09;;;;;;;12.55;2.45;;;12.80;99.90;;;;;;5056700;28;20125;-77
2021/12/05 02:41:04;;;;;;;17.85;2.50;;;12.70;99.90;;;;;;5057275;28;20043;-76
2021/12/05 02:43:35;;;;;;;20.17;2.47;;;12.70;99.90;;;;;;5056911;28;20025;-76
2021/12/05 02:46:04;;;;;;;10.80;2.00;;;12.70;99.90;;;;;;5044657;28;20071;-76
2021/12/05 02:48:36;;;;;;;11.85;2.55;;;12.70;99.90;;;;;;5099054;28;20091;-76
2021/12/05 02:51:09;;;;;;;17.35;2.08;;;12.70;99.90;;;;;;5099506;28;20023;-76
2021/12/05 02:53:53;;;;;;;15.52;2.63;;;12.70;99.90;;;;;;5097780;28;20028;-76
2021/12/05 02:56:26;;;;;;;14.68;1.80;;;12.70;99.90;;;;;;5097594;28;20428;-77
2021/12/05 02:58:56;;;;;;;17.05;2.60;;;12.80;99.90;;;;;;5097572;28;20383;-76
2021/12/05 03:01:44;;;;;;;15.95;2.13;;;12.80;99.90;;;;;;5098961;28;20079;-76
2021/12/05 03:04:11;;;;;;;8.15;1.75;;;12.80;99.90;;;;;;5099365;28;20024;-76
2021/12/05 03:06:49;;;;;;;18.80;2.40;;;12.80;99.90;;;;;;5099233;28;20437;-76
2021/12/05 03:09:15;;;;;;;15.35;2.30;;;12.80;99.90;;;;;;5099101;28;20066;-76
2021/12/05 03:11:47;;;;;;;18.95;2.55;;;12.80;99.90;;;;;;5098627;28;20020;-76
2021/12/05 03:14:14;;;;;;;14.63;2.42;;;12.80;99.90;;;;;;5097488;28;20024;-75
2021/12/05 03:16:41;;;;;;;12.43;2.20;;;12.90;99.90;;;;;;5098687;28;20028;-76
2021/12/05 03:19:08;;;;;;;;;;;12.90;99.90;;;;;;5098999;28;20036;-75
2021/12/05 03:21:36;;;;;;;14.60;2.42;;;12.90;99.90;;;;;;5097367;28;19915;-76
2021/12/05 03:24:05;;;;;;;17.20;2.65;;;12.90;99.90;;;;;;5098714;28;20468;-76
2021/12/05 03:26:39;;;;;;;20.25;2.65;;;12.90;99.90;;;;;;5097790;28;20028;-76
2021/12/05 03:29:09;;;;;;;21.88;2.50;;;12.90;99.90;;;;;;5099209;28;20032;-76
2021/12/05 03:31:37;;;;;;;13.43;2.53;;;12.90;99.90;;;;;;5080509;28;20036;-75
2021/12/05 03:34:06;;;;;;;18.02;2.58;;;12.90;99.90;;;;;;5097326;28;20121;-76
2021/12/05 03:36:36;;;;;;;20.30;3.17;;;12.80;99.90;;;;;;5098382;28;20052;-76
2021/12/05 03:39:05;;;;;;;20.63;3.20;;;12.80;99.90;;;;;;5098560;28;20032;-76
2021/12/05 03:41:32;;;;;;;25.15;3.40;;;12.80;99.90;;;;;;5097316;28;20043;-76
2021/12/05 03:43:58;;;;;;;12.02;2.13;;;12.70;99.90;;;;;;5094884;28;20051;-76
2021/12/05 03:46:26;;;;;;;16.00;2.92;;;12.70;99.90;;;;;;5093893;28;20031;-76
2021/12/05 03:48:56;;;;;;;16.98;2.33;;;12.70;99.90;;;;;;5095226;28;20111;-76
2021/12/05 03:51:25;;;;;;;18.23;2.53;;;12.60;99.90;;;;;;5095612;28;20381;-76
2021/12/05 03:53:52;;;;;;;14.35;2.13;;;12.60;99.90;;;;;;5095193;28;20047;-74
2021/12/05 03:56:22;;;;;;;20.08;2.72;;;12.60;99.90;;;;;;5095095;28;20098;-75
2021/12/05 03:58:51;;;;;;;13.43;2.20;;;12.60;99.90;;;;;;5094279;28;20024;-75
2021/12/05 04:01:20;;;;;;;13.38;2.20;;;12.50;99.90;;;;;;5095527;28;20107;-76
2021/12/05 04:03:48;;;;;;;8.38;1.83;;;12.50;99.90;;;;;;5095084;28;20052;-76
2021/12/05 04:06:20;;;;;;;16.83;2.13;;;12.50;99.90;;;;;;5093530;28;20024;-76
2021/12/05 04:08:49;;;;;;;13.30;1.60;;;12.50;99.90;;;;;;5095327;28;20028;-75
2021/12/05 04:11:25;;;;;;;12.35;2.00;;;12.50;99.90;;;;;;5093418;28;20130;-77
2021/12/05 04:13:53;;;;;;;10.80;1.70;;;12.50;99.90;;;;;;5095162;28;20073;-76
2021/12/05 04:16:20;;;;;;;14.13;2.53;;;12.50;99.90;;;;;;5094948;28;20115;-76
2021/12/05 04:18:49;;;;;;;13.85;2.00;;;12.50;99.90;;;;;;5094676;28;20028;-76
2021/12/05 04:21:20;;;;;;;11.77;1.80;;;12.50;99.90;;;;;;5094832;28;20106;-75
2021/12/05 04:23:49;;;;;;;9.13;1.45;;;12.50;99.90;;;;;;5095083;28;20048;-76
2021/12/05 04:26:17;;;;;;;16.40;2.10;;;12.50;99.90;;;;;;5093225;28;20266;-76
2021/12/05 04:28:46;;;;;;;11.57;1.50;;;12.50;99.90;;;;;;5094749;28;20070;-76
2021/12/05 04:31:14;;;;;;;13.52;2.10;;;12.40;99.90;;;;;;5094760;28;20100;-76
2021/12/05 04:33:40;;;;;;;12.43;1.83;;;12.40;99.90;;;;;;5094902;28;20058;-76
2021/12/05 04:36:07;;;;;;;15.50;2.40;;;12.40;99.90;;;;;;5094181;28;20059;-75
2021/12/05 04:38:33;;;;;;;;;;;12.40;99.90;;;;;;5093380;28;20031;-76
2021/12/05 04:40:59;;;;;;;15.15;1.73;;;12.40;99.90;;;;;;5094770;28;19949;-76
2021/12/05 04:43:25;;;;;;;13.95;2.20;;;12.30;99.90;;;;;;5095019;28;20404;-76
2021/12/05 04:45:51;;;;;;;13.37;2.00;;;12.30;99.90;;;;;;5094472;28;20103;-76
2021/12/05 04:48:17;;;;;;;11.13;1.63;;;12.30;99.90;;;;;;5094531;28;20395;-75
2021/12/05 04:50:45;;;;;;;11.32;1.70;;;12.30;99.90;;;;;;5094054;28;20023;-76
2021/12/05 04:53:12;;;;;;;13.70;2.08;;;12.30;99.90;;;;;;5093997;28;20032;-76
2021/12/05 04:55:38;;;;;;;9.95;1.88;;;12.30;99.90;;;;;;5093890;28;20099;-75
2021/12/05 04:58:06;;;;;;;10.80;1.60;;;12.30;99.90;;;;;;5093885;28;20051;-76
2021/12/05 05:00:42;;;;;;;13.52;1.60;;;12.30;99.90;;;;;;5093892;28;20019;-75
2021/12/05 05:03:11;;;;;;;11.15;1.48;;;12.30;99.90;;;;;;5092565;28;20028;-76
2021/12/05 05:05:48;;;;;;;10.60;2.50;;;12.30;99.90;;;;;;5093689;28;20020;-76
2021/12/05 05:08:15;;;;;;;7.50;1.58;;;12.30;99.90;;;;;;5092419;28;20085;-76
2021/12/05 05:10:42;;;;;;;11.07;1.50;;;12.20;99.90;;;;;;5093708;28;20460;-76
2021/12/05 05:13:09;;;;;;;10.93;1.38;;;12.20;99.90;;;;;;5093552;28;20032;-78
2021/12/05 05:15:36;;;;;;;7.63;1.50;;;12.30;99.90;;;;;;5093669;28;20016;-76
2021/12/05 05:18:04;;;;;;;;;;;12.30;99.90;;;;;;5094251;28;20254;-76
2021/12/05 05:20:38;;;;;;;8.48;1.42;;;12.30;99.90;;;;;;5092030;28;19911;-76
2021/12/05 05:26:22;;;;;;;11.03;1.83;;;12.30;99.90;;;;;;5093794;28;20024;-76
2021/12/05 05:39:53;;;;;;;7.43;1.42;;;12.50;99.90;;;;;;5092348;28;20066;-76
2021/12/05 05:45:14;;;;;;;14.90;1.65;;;12.50;99.90;;;;;;5093063;28;20114;-76
2021/12/05 05:50:21;;;;;;;7.95;1.30;;;12.60;99.90;;;;;;5093060;28;20024;-76
2021/12/05 05:52:49;;;;;;;5.10;1.50;;;12.60;99.90;;;;;;5093231;28;20468;-78
2021/12/05 05:55:20;;;;;;;8.23;1.25;;;12.70;99.90;;;;;;5093407;28;20024;-76
2021/12/05 06:00:32;;;;;;;10.32;1.48;;;12.60;99.90;;;;;;5092867;28;20191;-75
2021/12/05 06:03:21;;;;;;;6.63;1.40;;;12.60;99.90;;;;;;5091637;28;20059;-75
2021/12/05 06:05:56;;;;;;;6.50;1.40;;;12.70;99.90;;;;;;5092328;28;20024;-76
2021/12/05 06:08:25;;;;;;;8.40;1.75;;;12.70;99.90;;;;;;5093200;28;20072;-76
2021/12/05 06:10:57;;;;;;;10.25;1.35;;;12.70;99.90;;;;;;5092773;28;20022;-77
2021/12/05 06:13:24;;;;;;;5.95;1.20;;;12.70;99.90;;;;;;5092908;28;20472;-76
2021/12/05 06:15:51;;;;;;;8.02;1.17;;;12.70;99.90;;;;;;5092998;28;20016;-76
2021/12/05 06:18:17;;;;;;;;;;;12.70;99.90;;;;;;5091598;28;20044;-76
2021/12/05 06:20:44;;;;;;;5.57;1.10;;;12.80;99.90;;;;;;5093325;28;19942;-76
2021/12/05 06:23:12;;;;;;;5.90;1.25;;;12.80;99.90;;;;;;5092638;28;20533;-76
2021/12/05 06:25:41;;;;;;;7.13;1.33;;;12.90;99.90;;;;;;5092550;28;20024;-76
2021/12/05 06:28:14;;;;;;;5.63;1.25;;;13.00;99.90;;;;;;5092979;28;20503;-76
2021/12/05 06:31:00;;;;;;;5.00;1.25;;;13.10;99.90;;;;;;5092768;28;20020;-76
2021/12/05 06:47:12;;;;;;;4.80;0.88;;;14.00;99.90;;;;;;5092366;28;20097;-76
2021/12/05 06:49:42;;;;;;;5.55;1.15;;;13.90;99.90;;;;;;5091013;28;20111;-77
2021/12/05 06:52:09;;;;;;;5.13;1.27;;;13.90;99.90;;;;;;5092595;28;20020;-77
2021/12/05 06:54:36;;;;;;;;;;;13.90;99.90;;;;;;5093082;28;20460;-77
2021/12/05 06:57:05;;;;;;;5.78;1.20;;;13.90;99.90;;;;;;5092292;28;19999;-77
2021/12/05 06:59:32;;;;;;;5.93;1.02;;;13.90;99.90;;;;;;5092353;28;20028;-77
2021/12/05 07:01:58;;;;;;;8.98;1.10;;;13.90;99.90;;;;;;5090944;28;20123;-77
2021/12/05 07:04:46;;;;;;;7.67;1.57;;;13.90;99.90;;;;;;5092408;28;20103;-78
2021/12/05 07:07:18;;;;;;;6.75;1.20;;;13.90;99.90;;;;;;5091998;28;20318;-77
2021/12/05 07:09:47;;;;;;;12.27;1.63;;;13.90;99.90;;;;;;5092076;28;20036;-78
2021/12/05 07:20:21;;;;;;;8.23;1.57;;;14.10;99.90;;;;;;5095973;28;20112;-78
2021/12/05 07:25:31;;;;;;;11.85;2.08;;;14.40;99.90;;;;;;5096055;28;20077;-78
2021/12/05 07:41:54;;;;;;;8.32;1.52;;;14.90;99.90;;;;;;5095931;28;20073;-77
2021/12/05 07:44:20;;;;;;;4.95;1.30;;;14.80;99.90;;;;;;5096286;28;20526;-78
2021/12/05 07:46:47;;;;;;;7.57;1.40;;;14.70;99.90;;;;;;5095636;28;20032;-76
2021/12/05 07:49:16;;;;;;;8.70;1.50;;;14.70;99.90;;;;;;5095604;28;20056;-77
2021/12/05 07:51:47;;;;;;;5.80;1.10;;;14.80;99.90;;;;;;5095572;28;20122;-77
2021/12/05 07:56:51;;;;;;;10.02;3.13;;;15.00;99.90;;;;;;5095364;28;20032;-77
2021/12/05 07:59:34;;;;;;;7.10;1.80;;;15.10;99.90;;;;;;5095409;28;20486;-77
2021/12/05 08:15:51;;;;;;;8.25;2.08;;;16.70;99.90;;;;;;5095244;28;20032;-77
2021/12/05 08:18:18;;;;;;;5.37;1.80;;;16.90;99.90;;;;;;5095544;28;20026;-76
2021/12/05 08:20:45;;;;;;;6.75;1.85;;;17.20;99.90;;;;;;5095567;28;20273;-76
2021/12/05 08:23:12;;;;;;;7.38;1.70;;;17.10;99.90;;;;;;5095046;28;20024;-76
2021/12/05 08:25:41;;;;;;;8.15;1.88;;;17.20;99.90;;;;;;5094906;28;20484;-76
2021/12/05 08:30:36;;;;;;;10.13;1.90;;;17.50;99.90;;;;;;5094318;28;20115;-76
2021/12/05 08:33:31;;;;;;;6.75;1.63;;;17.60;99.90;;;;;;5094776;28;20035;-75
2021/12/05 08:36:55;;;;;;;10.18;2.45;;;17.40;99.90;;;;;;5094629;28;20075;-75
2021/12/05 08:39:25;;;;;;;10.43;4.90;;;17.20;99.90;;;;;;5089080;28;20048;-75
2021/12/05 08:42:05;;;;;;;7.72;3.40;;;17.10;99.90;;;;;;5094397;28;20089;-75
2021/12/05 09:26:19;;;;;;;8.95;2.03;;;16.30;99.90;;;;;;5093548;28;20020;-75
2021/12/05 09:29:24;;;;;;;12.95;2.35;;;16.20;99.90;;;;;;5093036;28;20071;-76
2021/12/05 09:38:35;;;;;;;15.32;2.35;;;16.20;99.90;;;;;;5091247;28;20036;-75
2021/12/05 09:40:15;;;;;;;21.30;6.40;;;16.60;99.90;;;;;;5093399;28;20130;-74
2021/12/05 09:51:13;;;;;;;16.90;6.63;;;16.70;99.90;;;;;;5093279;28;19980;-76
2021/12/05 09:51:34;;;;;;;11.70;5.00;;;16.80;99.90;;;;;;5093226;28;20074;-75
2021/12/05 10:02:37;;;;;;;12.75;2.50;;;16.10;99.90;;;;;;5093205;28;20035;-75
2021/12/05 10:11:12;;;;;;;9.32;2.55;;;15.80;99.90;;;;;;5092721;28;20063;-75
2021/12/05 10:15:55;;;;;;;12.00;2.88;;;15.70;99.90;;;;;;5092471;28;20024;-75
2021/12/05 10:36:14;;;;;;;9.77;2.33;;;15.80;99.90;;;;;;5091178;28;20039;-74
2021/12/05 10:38:54;;;;;;;9.27;1.83;;;15.90;99.90;;;;;;5092466;28;20035;-74
2021/12/05 10:44:07;;;;;;;10.00;1.88;;;16.20;99.90;;;;;;5092030;28;20043;-77
2021/12/05 10:46:35;;;;;;;9.52;1.50;;;16.30;99.90;;;;;;5092024;28;20303;-77
2021/12/05 10:49:13;;;;;;;6.30;1.60;;;16.50;99.90;;;;;;5091877;28;20092;-75
2021/12/05 10:51:47;;;;;;;8.00;1.38;;;16.50;99.90;;;;;;5090753;28;20028;-76
2021/12/05 10:54:21;;;;;;;9.23;1.50;;;16.50;99.90;;;;;;5096419;28;20555;-77
2021/12/05 10:57:00;;;;;;;12.32;1.98;;;16.60;99.90;;;;;;5095781;28;20102;-76
2021/12/05 10:59:38;;;;;;;7.68;1.55;;;16.60;99.90;;;;;;5096273;28;20491;-76
2021/12/05 11:02:07;;;;;;;9.77;1.63;;;16.60;99.90;;;;;;5095950;28;20040;-77
2021/12/05 11:04:38;;;;;;;6.35;1.52;;;16.70;99.90;;;;;;5096040;28;20377;-75
2021/12/05 11:07:05;;;;;;;10.68;1.88;;;16.50;99.90;;;;;;5095819;28;20016;-74
2021/12/05 11:09:35;;;;;;;12.88;1.60;;;16.40;99.90;;;;;;5095868;28;20079;-75
2021/12/05 11:12:20;;;;;;;12.85;2.22;;;16.40;99.90;;;;;;5096222;28;20350;-75
2021/12/05 11:14:52;;;;;;;7.13;1.53;;;16.30;99.90;;;;;;5095670;28;20027;-74
2021/12/05 11:17:24;;;;;;;12.50;2.00;;;16.20;99.90;;;;;;5095346;28;20046;-75
2021/12/05 11:19:53;;;;;;;9.30;1.75;;;16.20;99.90;;;;;;5094387;28;20020;-75
2021/12/05 11:22:29;;;;;;;11.63;1.85;;;16.20;99.90;;;;;;5095769;28;20038;-75
2021/12/05 11:25:06;;;;;;;9.07;1.75;;;16.10;99.90;;;;;;5095796;28;20043;-76
2021/12/05 11:27:35;;;;;;;12.75;1.60;;;16.10;99.90;;;;;;5093923;28;20138;-78
2021/12/05 11:30:10;;;;;;;10.20;1.73;;;16.00;99.90;;;;;;5095469;28;20492;-75
2021/12/05 11:32:51;;;;;;;14.52;2.22;;;16.00;99.90;;;;;;5093994;28;20024;-75
2021/12/05 11:35:39;;;;;;;17.33;2.40;;;16.10;99.90;;;;;;5093768;28;20341;-74
2021/12/05 11:38:24;;;;;;;15.90;2.15;;;16.10;99.90;;;;;;5093944;28;20031;-75
2021/12/05 11:41:10;;;;;;;17.52;6.32;;;16.00;99.90;;;;;;5093933;28;20480;-75
2021/12/05 11:43:41;;;;;;;;;;;16.00;99.90;;;;;;5095409;28;20024;-76
2021/12/05 11:46:28;;;;;;;11.95;2.00;;;15.80;99.90;;;;;;5095476;28;20345;-74
2021/12/05 11:49:05;;;;;;;12.90;2.33;;;15.70;99.90;;;;;;5095707;28;20055;-75
2021/12/05 11:51:41;;;;;;;13.35;2.13;;;15.60;99.90;;;;;;5095283;28;20016;-75
2021/12/05 11:54:13;;;;;;;11.80;1.73;;;15.60;99.90;;;;;;5095182;28;20090;-75
2021/12/05 11:57:11;;;;;;;11.77;1.98;;;15.60;99.90;;;;;;5095039;28;20081;-76
2021/12/05 11:59:56;;;;;;;10.27;1.70;;;15.50;99.90;;;;;;5094426;28;20085;-74
2021/12/05 12:02:36;;;;;;;9.90;2.10;;;15.40;99.90;;;;;;5095155;28;20035;-75
2021/12/05 12:05:17;;;;;;;10.68;2.00;;;15.40;99.90;;;;;;5093835;28;20020;-73
2021/12/05 12:07:54;;;;;;;8.23;1.63;;;15.30;99.90;;;;;;5094396;28;20087;-73
2021/12/05 12:10:28;;;;;;;13.93;2.47;;;15.30;99.90;;;;;;5094479;28;20020;-73
2021/12/05 12:13:02;;;;;;;9.38;1.88;;;15.20;99.90;;;;;;5076677;28;20032;-76
2021/12/05 12:15:29;;;;;;;13.82;2.08;;;15.20;99.90;;;;;;5094867;28;20024;-73
2021/12/05 12:18:06;;;;;;;10.73;2.03;;;15.10;99.90;;;;;;5094330;28;20101;-75
2021/12/05 12:20:33;;;;;;;9.15;1.98;;;15.10;99.90;;;;;;5093045;28;20118;-75
2021/12/05 12:23:00;;;;;;;10.32;2.83;;;15.10;99.90;;;;;;5094882;28;20028;-74
2021/12/05 12:25:32;;;;;;;11.35;2.50;;;15.00;99.90;;;;;;5094484;28;20091;-75
2021/12/05 12:27:59;;;;;;;13.27;2.10;;;15.00;99.90;;;;;;5094827;28;20135;-74
2021/12/05 12:30:30;;;;;;;14.02;1.83;;;15.00;99.90;;;;;;5094301;28;20024;-75
2021/12/05 12:33:09;;;;;;;13.55;2.10;;;14.90;99.90;;;;;;5094776;28;20088;-76
2021/12/05 12:35:36;;;;;;;12.57;2.22;;;14.80;99.90;;;;;;5093893;28;20473;-75
2021/12/05 12:38:18;;;;;;;20.52;2.95;;;14.90;99.90;;;;;;5094054;28;20103;-75
2021/12/05 12:40:59;;;;;;;12.90;2.40;;;14.90;99.90;;;;;;5094299;28;20028;-74
2021/12/05 12:43:48;;;;;;;12.18;2.15;;;15.10;99.90;;;;;;5094504;28;20460;-74
2021/12/05 12:46:28;;;;;;;11.43;2.42;;;15.20;99.90;;;;;;5094081;28;20028;-75
2021/12/05 12:49:16;;;;;;;12.15;2.17;;;15.10;99.90;;;;;;5093793;28;20155;-75
2021/12/05 12:52:03;;;;;;;13.30;2.40;;;15.10;99.90;;;;;;5093900;28;20060;-76
2021/12/05 12:54:51;;;;;;;13.98;2.03;;;14.90;99.90;;;;;;5094225;28;20037;-75
2021/12/05 12:57:24;;;;;;;10.38;2.50;;;14.90;99.90;;;;;;5093889;28;20039;-75
2021/12/05 13:00:15;;;;;;;10.85;2.08;;;14.80;99.90;;;;;;5093790;28;20099;-74
2021/12/05 13:11:18;;;;;;;12.40;2.60;;;14.90;99.90;;;;;;5093862;28;20383;-76
2021/12/05 13:14:04;;;;;;;15.45;2.30;;;14.90;99.90;;;;;;5092271;28;20085;-76
2021/12/05 13:16:35;;;;;;;12.77;2.60;;;14.80;99.90;;;;;;5093442;28;20111;-76
2021/12/05 13:19:17;;;;;;;11.13;2.20;;;14.80;99.90;;;;;;5093360;28;20028;-76
2021/12/05 13:21:46;;;;;;;14.88;2.75;;;14.80;99.90;;;;;;5093212;28;20131;-76
2021/12/05 13:24:46;;;;;;;11.52;2.30;;;14.90;99.90;;;;;;5093269;28;20024;-76
2021/12/05 13:27:31;;;;;;;9.07;2.25;;;14.90;99.90;;;;;;5093323;28;20499;-76
2021/12/05 13:29:58;;;;;;;14.27;2.50;;;15.00;99.90;;;;;;5093801;28;20036;-75
2021/12/05 13:32:32;;;;;;;9.93;2.20;;;14.90;99.90;;;;;;5093310;28;20062;-76
2021/12/05 13:35:06;;;;;;;13.10;3.15;;;15.00;99.90;;;;;;5091467;28;20027;-76
2021/12/05 13:37:38;;;;;;;12.88;2.90;;;15.10;99.90;;;;;;5093540;28;20032;-76
2021/12/05 13:40:21;;;;;;;15.13;2.78;;;15.10;99.90;;;;;;5093773;28;20074;-76
2021/12/05 13:42:50;;;;;;;12.10;2.47;;;15.10;99.90;;;;;;5092929;28;20024;-76
2021/12/05 13:45:29;;;;;;;16.70;3.20;;;15.20;99.90;;;;;;5092961;28;20024;-76
2021/12/05 13:47:55;;;;;;;10.95;2.40;;;15.20;99.90;;;;;;5093112;28;20059;-76
2021/12/05 13:50:29;;;;;;;14.27;2.50;;;15.10;99.90;;;;;;5093228;28;20376;-76
2021/12/05 13:53:08;;;;;;;13.40;2.60;;;15.00;99.90;;;;;;5092742;28;20032;-76
2021/12/05 13:55:46;;;;;;;12.98;2.10;;;15.00;99.90;;;;;;5092509;28;20027;-77
2021/12/05 13:58:53;;;;;;;11.73;2.45;;;15.00;99.90;;;;;;5092873;28;20497;-77
2021/12/05 14:01:22;;;;;;;10.85;2.03;;;14.90;99.90;;;;;;5092045;28;20032;-77
2021/12/05 14:04:08;;;;;;;11.63;2.30;;;15.00;99.90;;;;;;5092387;28;20088;-76
2021/12/05 14:06:58;;;;;;;14.25;2.70;;;15.00;99.90;;;;;;5093046;28;20102;-77
2021/12/05 14:09:32;;;;;;;10.18;2.15;;;15.00;99.90;;;;;;5092262;28;20036;-76
2021/12/05 14:12:07;;;;;;;15.60;2.55;;;15.00;99.90;;;;;;5090839;28;20397;-76
2021/12/05 14:14:41;;;;;;;13.88;2.47;;;15.10;99.90;;;;;;5092715;28;20020;-76
2021/12/05 14:17:26;;;;;;;15.15;2.92;;;15.10;99.90;;;;;;5092615;28;20419;-77
2021/12/05 14:20:03;;;;;;;8.55;2.50;;;15.40;99.90;;;;;;5093297;28;20103;-77
2021/12/05 14:22:35;;;;;;;14.15;3.30;;;15.60;99.90;;;;;;5093156;28;20016;-75
2021/12/05 14:25:06;;;;;;;18.17;3.10;;;15.80;99.90;;;;;;5093282;28;20046;-76
2021/12/05 14:27:36;;;;;;;15.35;2.72;;;16.00;99.90;;;;;;5092715;28;20035;-77
2021/12/05 14:30:09;;;;;;;12.10;2.53;;;16.10;99.90;;;;;;5092688;28;20043;-76
2021/12/05 14:32:39;;;;;;;13.30;2.38;;;16.20;99.90;;;;;;5091620;28;20032;-78
2021/12/05 14:35:23;;;;;;;12.15;2.90;;;16.30;99.90;;;;;;5092670;28;20093;-75
2021/12/05 14:37:51;;;;;;;16.45;2.15;;;16.40;99.90;;;;;;5092899;28;20456;-75
2021/12/05 14:40:27;;;;;;;23.52;3.20;;;16.40;99.90;;;;;;5092179;28;20115;-78
2021/12/05 14:42:53;;;;;;;14.43;2.17;;;16.40;99.90;;;;;;5092190;28;20024;-77
2021/12/05 14:45:23;;;;;;;12.88;2.65;;;16.50;99.90;;;;;;5092425;28;20028;-77
2021/12/05 14:47:50;;;;;;;23.88;3.10;;;16.40;99.90;;;;;;5091383;28;20122;-76
2021/12/05 14:50:23;;;;;;;12.25;2.13;;;16.30;99.90;;;;;;5091920;28;20070;-77
2021/12/05 14:52:52;;;;;;;10.52;2.15;;;16.20;99.90;;;;;;5092296;28;20100;-75
2021/12/05 14:55:21;;;;;;;16.17;2.33;;;16.10;99.90;;;;;;5092088;28;20031;-76
2021/12/05 14:57:56;;;;;;;19.05;3.22;;;15.90;99.90;;;;;;5091708;28;20480;-75
2021/12/05 15:00:33;;;;;;;11.88;2.30;;;15.70;99.90;;;;;;5092125;28;20016;-74
2021/12/05 15:03:19;;;;;;;15.13;2.53;;;15.60;99.90;;;;;;5092202;28;20028;-75
2021/12/05 15:05:57;;;;;;;14.55;2.60;;;15.60;99.90;;;;;;5092030;28;20058;-75
2021/12/05 15:08:25;;;;;;;14.00;2.50;;;15.50;99.90;;;;;;5090300;28;20039;-75
2021/12/05 15:10:55;;;;;;;12.75;2.50;;;15.40;99.90;;;;;;5091934;28;20103;-75
2021/12/05 15:13:21;;;;;;;15.20;2.63;;;15.50;99.90;;;;;;5073463;28;20357;-74
2021/12/05 15:15:47;;;;;;;13.20;2.75;;;15.40;99.90;;;;;;5091601;28;20057;-75
2021/12/05 15:18:16;;;;;;;9.95;2.47;;;15.30;99.90;;;;;;5092540;28;20325;-74
2021/12/05 15:20:45;;;;;;;12.73;2.88;;;15.30;99.90;;;;;;5090344;28;20060;-74
2021/12/05 15:23:11;;;;;;;17.88;2.50;;;15.20;99.90;;;;;;5092117;28;20031;-74
2021/12/05 15:25:41;;;;;;;17.25;3.40;;;15.10;99.90;;;;;;5092389;28;20043;-75
2021/12/05 15:28:09;;;;;;;8.32;2.20;;;15.00;99.90;;;;;;5092564;28;20077;-75
2021/12/05 15:30:43;;;;;;;6.40;1.55;;;14.80;99.90;;;;;;5092586;28;20024;-76
2021/12/05 15:33:37;;;;;;;9.30;1.55;;;14.50;99.90;;;;;;5092392;28;20032;-75
2021/12/05 15:36:04;;;;;;;9.93;1.75;;;14.40;99.90;;;;;;5089037;28;20072;-75
2021/12/05 15:38:32;;;;;;;7.00;1.92;;;14.20;99.90;;;;;;5092129;28;20063;-74
2021/12/05 15:41:05;;;;;;;6.03;1.60;;;14.20;99.90;;;;;;5095153;28;20027;-75
2021/12/05 15:43:34;;;;;;;6.07;1.48;;;14.10;99.90;;;;;;5094081;28;20032;-75
2021/12/05 15:46:04;;;;;;;6.55;1.70;;;14.00;99.90;;;;;;5095481;28;20023;-74
2021/12/05 15:48:33;;;;;;;11.10;2.10;;;13.90;99.90;;;;;;5095195;28;20043;-75
2021/12/05 15:51:01;;;;;;;8.70;1.90;;;13.90;99.90;;;;;;5095168;28;20024;-75
2021/12/05 15:53:31;;;;;;;10.32;2.10;;;13.90;99.90;;;;;;5093679;28;20032;-75
2021/12/05 15:56:01;;;;;;;8.52;2.20;;;13.80;99.90;;;;;;5095097;28;20020;-74
2021/12/05 15:58:31;;;;;;;8.77;1.90;;;13.60;99.90;;;;;;5094975;28;20024;-75
2021/12/05 16:01:12;;;;;;;15.48;2.40;;;13.40;99.90;;;;;;5095021;28;20020;-75
2021/12/05 16:03:58;;;;;;;9.60;1.52;;;13.30;99.90;;;;;;5093388;28;20487;-74
2021/12/05 16:06:36;;;;;;;9.00;2.30;;;13.20;99.90;;;;;;5093410;28;20077;-75
2021/12/05 16:09:13;;;;;;;10.70;2.03;;;13.30;99.90;;;;;;5094530;28;20591;-75
2021/12/05 16:11:39;;;;;;;11.57;2.15;;;13.40;99.90;;;;;;5093695;28;20016;-74
2021/12/05 16:14:06;;;;;;;14.27;2.88;;;13.50;99.90;;;;;;5094853;28;20031;-74
2021/12/05 16:16:34;;;;;;;11.07;2.08;;;13.60;99.90;;;;;;5095187;28;20541;-74
2021/12/05 16:19:07;;;;;;;5.97;1.67;;;13.60;99.90;;;;;;5095507;28;20028;-74
2021/12/05 16:21:36;;;;;;;10.10;2.15;;;13.60;99.90;;;;;;5077240;28;20039;-73
2021/12/05 16:24:17;;;;;;;9.15;2.38;;;13.60;99.90;;;;;;5095538;28;20024;-74
2021/12/05 16:26:46;;;;;;;6.65;2.30;;;13.60;99.90;;;;;;5095103;28;20032;-73
2021/12/05 16:29:17;;;;;;;12.52;2.00;;;13.60;99.90;;;;;;5094915;28;20388;-73
2021/12/05 16:31:50;;;;;;;9.80;1.70;;;13.60;99.90;;;;;;5093560;28;20028;-73
2021/12/05 16:34:19;;;;;;;8.50;1.70;;;13.50;99.90;;;;;;5095156;28;20109;-73
2021/12/05 16:36:53;;;;;;;9.98;1.83;;;13.50;99.90;;;;;;5093049;28;20437;-73
2021/12/05 16:39:31;;;;;;;8.55;1.67;;;13.60;99.90;;;;;;5094826;28;20030;-73
2021/12/05 16:42:24;;;;;;;8.73;1.55;;;13.60;99.90;;;;;;5094640;28;20055;-74
2021/12/05 16:44:57;;;;;;;7.53;1.38;;;13.60;99.90;;;;;;5094607;28;20099;-75
2021/12/05 16:47:28;;;;;;;10.77;1.60;;;13.60;99.90;;;;;;5095002;28;20471;-74
2021/12/05 16:49:57;;;;;;;10.48;1.80;;;13.60;99.90;;;;;;5094640;28;20027;-72
2021/12/05 16:52:31;;;;;;;8.60;1.88;;;13.40;99.90;;;;;;5094341;28;20027;-74
2021/12/05 16:55:16;;;;;;;4.95;1.35;;;13.40;99.90;;;;;;5094586;28;20024;-73
2021/12/05 16:57:57;;;;;;;10.05;2.22;;;13.40;99.90;;;;;;5094437;28;20024;-74
2021/12/05 17:00:27;;;;;;;5.22;1.10;;;13.50;99.90;;;;;;5094230;28;20034;-73
2021/12/05 17:02:59;;;;;;;2.92;0.90;;;13.00;99.90;;;;;;5094467;28;20452;-73
2021/12/05 17:05:34;;;;;;;3.58;1.20;;;12.30;99.90;;;;;;5094454;28;20051;-72
2021/12/05 17:08:12;;;;;;;1.75;0.85;;;12.00;99.90;;;;;;5094142;28;20035;-72
2021/12/05 17:10:48;;;;;;;2.97;0.88;;;11.90;99.90;;;;;;5094634;28;20024;-73
2021/12/05 17:13:28;;;;;;;3.35;1.20;;;11.80;99.90;;;;;;5094224;28;20380;-73
2021/12/05 17:16:04;;;;;;;2.83;1.08;;;11.70;99.90;;;;;;5094286;28;20028;-73
2021/12/05 17:18:46;;;;;;;5.10;1.00;;;11.70;99.90;;;;;;5094010;28;20031;-74
2021/12/05 17:21:23;;;;;;;3.80;1.00;;;11.80;99.90;;;;;;5093781;28;20487;-71
2021/12/05 17:24:01;;;;;;;2.22;0.93;;;11.90;99.90;;;;;;5094485;28;20027;-73
2021/12/05 17:26:37;;;;;;;3.40;1.05;;;11.80;99.90;;;;;;5094232;28;20028;-73
2021/12/05 17:29:11;;;;;;;3.28;0.90;;;11.80;99.90;;;;;;5094345;28;20085;-73
2021/12/05 17:31:41;;;;;;;2.15;0.82;;;11.90;99.90;;;;;;5094291;28;20028;-73
2021/12/05 17:34:24;;;;;;;2.85;1.05;;;11.90;99.90;;;;;;5093779;28;20562;-74
2021/12/05 17:37:05;;;;;;;2.28;0.80;;;11.90;99.90;;;;;;5093692;28;20051;-73
2021/12/05 17:39:36;;;;;;;2.85;1.00;;;11.80;99.90;;;;;;5094200;28;20028;-73
2021/12/05 17:42:09;;;;;;;3.92;1.10;;;11.80;99.90;;;;;;5094146;28;20028;-73
2021/12/05 17:44:37;;;;;;;3.25;0.90;;;11.90;99.90;;;;;;5093606;28;20059;-74
2021/12/05 17:47:08;;;;;;;3.65;0.88;;;11.80;99.90;;;;;;5093488;28;20036;-73
2021/12/05 17:49:36;;;;;;;5.50;1.10;;;11.90;99.90;;;;;;5093719;28;20036;-73
2021/12/05 17:52:04;;;;;;;2.05;0.70;;;11.90;99.90;;;;;;5093625;28;20049;-73
2021/12/05 17:54:37;;;;;;;3.65;0.93;;;11.90;99.90;;;;;;5093356;28;20028;-72
2021/12/05 17:57:09;;;;;;;3.08;1.30;;;11.90;99.90;;;;;;5093239;28;20059;-74